createdAt,value
2023-03-04T00:01:35.905Z,9.06
2023-03-04T00:04:03.309Z,9.06
2023-03-04T00:06:30.470Z,8.86
2023-03-04T00:08:57.612Z,8.75
2023-03-04T00:11:25.030Z,8.39
2023-03-04T00:13:52.153Z,8.84
2023-03-04T00:16:19.382Z,8.93
2023-03-04T00:18:46.814Z,8.96
2023-03-04T00:21:13.962Z,9.00
2023-03-04T00:23:41.967Z,8.90
2023-03-04T00:26:09.709Z,9.02
2023-03-04T00:28:36.969Z,8.92
2023-03-04T00:31:04.151Z,8.88
2023-03-04T00:33:31.617Z,8.88
2023-03-04T00:35:59.578Z,8.87
2023-03-04T00:38:27.021Z,8.75
2023-03-04T00:40:54.617Z,8.85
2023-03-04T00:43:21.877Z,8.75
2023-03-04T00:45:49.197Z,8.79
2023-03-04T00:48:16.679Z,8.65
2023-03-04T00:50:44.302Z,8.68
2023-03-04T00:53:11.480Z,8.35
2023-03-04T00:55:38.922Z,8.71
2023-03-04T00:58:06.072Z,8.79
2023-03-04T01:00:33.226Z,9.01
2023-03-04T01:03:00.612Z,8.91
2023-03-04T01:05:27.777Z,9.03
2023-03-04T01:07:54.919Z,9.01
2023-03-04T01:10:22.326Z,8.82
2023-03-04T01:12:49.478Z,8.98
2023-03-04T01:15:16.638Z,9.14
2023-03-04T01:17:44.241Z,9.17
2023-03-04T01:20:11.570Z,9.11
2023-03-04T01:22:38.744Z,8.96
2023-03-04T01:25:06.422Z,9.02
2023-03-04T01:27:33.592Z,8.89
2023-03-04T01:30:00.805Z,9.02
2023-03-04T01:32:29.927Z,8.75
2023-03-04T01:34:57.153Z,8.78
2023-03-04T01:37:24.292Z,9.14
2023-03-04T01:39:51.749Z,9.18
2023-03-04T01:42:20.020Z,9.16
2023-03-04T01:44:47.196Z,9.19
2023-03-04T01:47:14.755Z,9.35
2023-03-04T01:49:41.959Z,9.27
2023-03-04T01:52:12.467Z,9.16
2023-03-04T01:54:40.252Z,9.22
2023-03-04T01:57:13.450Z,9.23
2023-03-04T01:59:40.851Z,9.26
2023-03-04T02:02:08.000Z,9.37
2023-03-04T02:04:36.704Z,9.12
2023-03-04T02:07:03.965Z,9.00
2023-03-04T02:09:31.516Z,8.98
2023-03-04T02:11:58.934Z,9.01
2023-03-04T02:14:26.399Z,9.09
2023-03-04T02:16:53.572Z,8.98
2023-03-04T02:19:39.564Z,8.76
2023-03-04T02:22:06.963Z,8.75
2023-03-04T02:24:44.089Z,8.77
2023-03-04T02:27:11.773Z,8.88
2023-03-04T02:29:39.112Z,8.67
2023-03-04T02:32:06.550Z,8.91
2023-03-04T02:34:34.570Z,8.95
2023-03-04T02:37:01.938Z,9.04
2023-03-04T02:39:36.390Z,9.06
2023-03-04T02:42:04.148Z,8.25
2023-03-04T02:44:34.985Z,8.88
2023-03-04T02:47:02.408Z,8.52
2023-03-04T02:49:31.386Z,8.91
2023-03-04T02:51:59.693Z,8.98
2023-03-04T02:54:27.012Z,9.18
2023-03-04T02:56:55.659Z,8.98
2023-03-04T02:59:23.324Z,9.21
2023-03-04T03:01:50.731Z,9.17
2023-03-04T03:04:18.510Z,8.99
2023-03-04T03:06:46.154Z,8.77
2023-03-04T03:09:13.320Z,8.72
2023-03-04T03:11:40.744Z,8.71
2023-03-04T03:14:08.894Z,8.91
2023-03-04T03:16:36.118Z,8.79
2023-03-04T03:19:04.793Z,8.84
2023-03-04T03:21:31.976Z,8.93
2023-03-04T03:23:59.177Z,8.75
2023-03-04T03:26:26.660Z,8.78
2023-03-04T03:28:53.799Z,8.92
2023-03-04T03:31:21.428Z,8.83
2023-03-04T03:33:48.879Z,8.57
2023-03-04T03:36:16.253Z,8.51
2023-03-04T03:38:43.464Z,8.71
2023-03-04T03:41:10.905Z,8.85
2023-03-04T03:43:38.038Z,8.89
2023-03-04T03:46:05.399Z,8.97
2023-03-04T03:48:32.927Z,8.77
2023-03-04T03:51:00.054Z,8.96
2023-03-04T03:53:27.222Z,8.95
2023-03-04T03:55:54.779Z,8.82
2023-03-04T03:58:23.208Z,8.79
2023-03-04T04:00:50.494Z,8.74
2023-03-04T04:03:17.916Z,8.63
2023-03-04T04:05:45.042Z,8.67
2023-03-04T04:08:17.981Z,8.03
2023-03-04T04:10:45.433Z,8.59
2023-03-04T04:13:12.718Z,8.12
2023-03-04T04:15:39.892Z,8.15
2023-03-04T04:18:07.320Z,8.01
2023-03-04T04:20:34.627Z,8.04
2023-03-04T04:23:02.154Z,7.92
2023-03-04T04:25:29.704Z,7.85
2023-03-04T04:27:56.848Z,7.78
2023-03-04T04:30:24.115Z,7.70
2023-03-04T04:32:51.720Z,7.70
2023-03-04T04:35:19.008Z,7.71
2023-03-04T04:37:46.178Z,7.55
2023-03-04T04:40:13.671Z,7.46
2023-03-04T04:42:40.810Z,7.32
2023-03-04T04:45:08.227Z,7.34
2023-03-04T04:47:35.663Z,7.43
2023-03-04T04:50:02.851Z,7.04
2023-03-04T04:52:30.055Z,6.78
2023-03-04T04:54:57.645Z,6.89
2023-03-04T04:57:24.847Z,7.00
2023-03-04T04:59:52.005Z,7.24
2023-03-04T05:02:19.406Z,7.02
2023-03-04T05:04:46.568Z,6.86
2023-03-04T05:07:13.722Z,6.87
2023-03-04T05:09:41.227Z,6.73
2023-03-04T05:12:08.368Z,6.44
2023-03-04T05:14:35.735Z,6.41
2023-03-04T05:17:03.439Z,6.43
2023-03-04T05:19:30.585Z,6.40
2023-03-04T05:21:57.751Z,6.76
2023-03-04T05:24:25.419Z,6.84
2023-03-04T05:26:52.542Z,6.78
2023-03-04T05:29:19.741Z,6.82
2023-03-04T05:31:47.161Z,5.90
2023-03-04T05:34:14.267Z,6.03
2023-03-04T05:36:41.428Z,6.33
2023-03-04T05:39:08.903Z,6.73
2023-03-04T05:41:36.035Z,6.44
2023-03-04T05:44:03.154Z,6.63
2023-03-04T05:46:33.378Z,6.29
2023-03-04T05:49:00.751Z,6.75
2023-03-04T05:51:27.910Z,7.08
2023-03-04T05:53:55.343Z,6.68
2023-03-04T05:56:22.626Z,7.33
2023-03-04T05:58:49.798Z,7.26
2023-03-04T06:01:17.272Z,7.69
2023-03-04T06:03:45.028Z,7.21
2023-03-04T06:06:12.249Z,7.88
2023-03-04T06:08:39.408Z,8.07
2023-03-04T06:11:06.824Z,8.13
2023-03-04T06:13:34.109Z,7.99
2023-03-04T06:16:01.392Z,7.56
2023-03-04T06:18:29.112Z,7.59
2023-03-04T06:20:59.887Z,8.01
2023-03-04T06:23:27.270Z,7.78
2023-03-04T06:25:55.089Z,8.49
2023-03-04T06:28:22.319Z,9.15
2023-03-04T06:30:51.680Z,9.35
2023-03-04T06:33:19.431Z,9.53
2023-03-04T06:35:46.680Z,9.49
2023-03-04T06:38:14.103Z,9.54
2023-03-04T06:40:41.567Z,9.07
2023-03-04T06:43:08.713Z,8.43
2023-03-04T06:45:35.870Z,8.86
2023-03-04T06:48:03.424Z,9.41
2023-03-04T06:50:30.542Z,9.98
2023-03-04T06:52:57.824Z,11.40
2023-03-04T06:55:25.274Z,12.56
2023-03-04T06:57:52.439Z,11.71
2023-03-04T07:00:19.742Z,10.99
2023-03-04T07:02:47.134Z,10.58
2023-03-04T07:05:14.273Z,10.40
2023-03-04T07:07:41.451Z,10.30
2023-03-04T07:10:10.187Z,10.65
2023-03-04T07:12:37.388Z,10.93
2023-03-04T07:15:04.743Z,10.46
2023-03-04T07:17:32.175Z,10.06
2023-03-04T07:19:59.306Z,10.45
2023-03-04T07:22:26.487Z,10.17
2023-03-04T07:24:53.989Z,10.95
2023-03-04T07:27:21.142Z,10.88
2023-03-04T07:29:48.298Z,10.58
2023-03-04T07:32:15.758Z,10.62
2023-03-04T07:34:42.977Z,10.98
2023-03-04T07:37:10.125Z,10.76
2023-03-04T07:39:37.569Z,10.99
2023-03-04T07:42:04.709Z,10.53
2023-03-04T07:44:31.880Z,10.78
2023-03-04T07:46:59.378Z,11.35
2023-03-04T07:49:26.540Z,11.35
2023-03-04T07:51:53.680Z,11.89
2023-03-04T07:54:21.115Z,13.01
2023-03-04T07:56:48.281Z,14.61
2023-03-04T07:59:15.443Z,15.94
2023-03-04T08:01:44.683Z,16.62
2023-03-04T08:04:12.992Z,15.53
2023-03-04T08:06:40.612Z,15.34
2023-03-04T08:09:08.117Z,15.41
2023-03-04T08:11:36.504Z,15.11
2023-03-04T08:14:03.989Z,14.97
2023-03-04T08:16:31.170Z,14.62
2023-03-04T08:18:59.472Z,14.38
2023-03-04T08:21:26.889Z,13.65
2023-03-04T08:23:54.343Z,13.84
2023-03-04T08:26:29.096Z,13.41
2023-03-04T08:28:56.887Z,13.54
2023-03-04T08:31:24.520Z,12.47
2023-03-04T08:33:52.989Z,12.43
2023-03-04T08:36:20.224Z,12.23
2023-03-04T08:38:47.706Z,12.12
2023-03-04T08:41:15.554Z,14.58
2023-03-04T08:43:44.240Z,14.06
2023-03-04T08:46:11.759Z,13.88
2023-03-04T08:48:39.016Z,14.05
2023-03-04T08:51:09.719Z,13.54
2023-03-04T08:53:37.574Z,13.35
2023-03-04T08:56:05.520Z,13.33
2023-03-04T08:58:32.732Z,14.07
2023-03-04T09:01:00.827Z,14.26
2023-03-04T09:03:28.054Z,15.37
2023-03-04T09:05:55.323Z,16.54
2023-03-04T09:08:22.880Z,17.84
2023-03-04T09:10:52.122Z,17.95
2023-03-04T09:13:19.347Z,17.27
2023-03-04T09:15:47.644Z,16.25
2023-03-04T09:18:14.928Z,15.75
2023-03-04T09:20:42.064Z,15.74
2023-03-04T09:23:09.747Z,15.84
2023-03-04T09:25:37.384Z,16.07
2023-03-04T09:28:04.896Z,15.93
2023-03-04T09:30:32.682Z,15.81
2023-03-04T09:32:59.826Z,16.83
2023-03-04T09:35:27.135Z,16.65
2023-03-04T09:37:54.557Z,15.93
2023-03-04T09:40:23.378Z,16.63
2023-03-04T09:42:52.091Z,16.96
2023-03-04T09:45:21.186Z,16.73
2023-03-04T09:47:48.731Z,16.68
2023-03-04T09:50:15.902Z,16.25
2023-03-04T09:53:02.344Z,16.72
2023-03-04T09:55:34.449Z,16.88
2023-03-04T09:58:07.454Z,17.50
2023-03-04T10:00:53.452Z,16.84
2023-03-04T10:03:39.489Z,17.36
2023-03-04T10:06:07.950Z,17.36
2023-03-04T10:08:38.400Z,17.07
2023-03-04T10:11:13.486Z,17.51
2023-03-04T10:13:46.961Z,17.79
2023-03-04T10:16:14.993Z,17.17
2023-03-04T10:18:56.683Z,16.90
2023-03-04T10:21:31.219Z,17.05
2023-03-04T10:24:00.537Z,17.45
2023-03-04T10:26:29.339Z,17.51
2023-03-04T10:28:56.450Z,17.56
2023-03-04T10:31:37.222Z,17.53
2023-03-04T10:34:05.101Z,17.06
2023-03-04T10:36:32.455Z,16.43
2023-03-04T10:38:59.541Z,16.76
2023-03-04T10:41:27.818Z,16.74
2023-03-04T10:44:21.288Z,17.08
2023-03-04T10:46:48.930Z,17.07
2023-03-04T10:49:17.365Z,17.24
2023-03-04T10:51:45.417Z,17.31
2023-03-04T10:54:18.776Z,17.14
2023-03-04T10:56:59.407Z,17.32
2023-03-04T10:59:46.261Z,17.27
2023-03-04T11:02:15.253Z,17.13
2023-03-04T11:04:42.419Z,17.61
2023-03-04T11:07:10.762Z,17.52
2023-03-04T11:09:40.159Z,16.60
2023-03-04T11:12:14.490Z,17.02
2023-03-04T11:14:45.953Z,16.53
2023-03-04T11:17:15.872Z,17.67
2023-03-04T11:19:43.294Z,16.79
2023-03-04T11:22:10.656Z,17.34
2023-03-04T11:24:37.847Z,16.96
2023-03-04T11:27:05.253Z,16.77
2023-03-04T11:29:37.140Z,16.66
2023-03-04T11:32:24.912Z,16.37
2023-03-04T11:34:54.594Z,16.35
2023-03-04T11:37:28.074Z,16.02
2023-03-04T11:39:57.501Z,15.48
2023-03-04T11:42:43.630Z,16.27
2023-03-04T11:45:27.749Z,15.47
2023-03-04T11:48:02.376Z,14.70
2023-03-04T11:50:30.932Z,15.02
2023-03-04T11:53:02.183Z,14.72
2023-03-04T11:55:40.866Z,15.04
2023-03-04T11:58:08.267Z,14.76
2023-03-04T12:00:39.164Z,14.93
2023-03-04T12:03:13.183Z,15.25
2023-03-04T12:05:52.651Z,14.76
2023-03-04T12:08:22.093Z,14.82
2023-03-04T12:10:51.750Z,15.54
2023-03-04T12:13:31.127Z,15.23
2023-03-04T12:16:01.776Z,14.73
2023-03-04T12:18:47.328Z,14.13
2023-03-04T12:21:33.337Z,14.97
2023-03-04T12:24:09.901Z,14.30
2023-03-04T12:26:46.347Z,14.57
2023-03-04T12:29:15.925Z,15.02
2023-03-04T12:31:43.746Z,15.26
2023-03-04T12:34:29.848Z,15.12
2023-03-04T12:37:05.294Z,15.60
2023-03-04T12:39:33.073Z,15.61
2023-03-04T12:42:09.506Z,15.30
2023-03-04T12:44:39.368Z,14.77
2023-03-04T12:47:25.509Z,15.25
2023-03-04T12:49:59.445Z,15.39
2023-03-04T12:52:33.172Z,15.27
2023-03-04T12:55:02.966Z,15.10
2023-03-04T12:57:31.768Z,15.37
2023-03-04T13:00:02.047Z,15.46
2023-03-04T13:02:48.182Z,15.04
2023-03-04T13:05:34.750Z,15.16
2023-03-04T13:08:24.876Z,15.05
2023-03-04T13:10:52.425Z,15.57
2023-03-04T13:13:38.362Z,15.55
2023-03-04T13:16:11.798Z,15.26
2023-03-04T13:18:39.613Z,14.78
2023-03-04T13:21:24.008Z,15.23
2023-03-04T13:23:51.748Z,15.49
2023-03-04T13:26:29.403Z,15.28
2023-03-04T13:29:08.808Z,14.62
2023-03-04T13:31:56.328Z,15.08
2023-03-04T13:34:43.745Z,14.69
2023-03-04T13:37:26.287Z,14.28
2023-03-04T13:40:14.354Z,14.86
2023-03-04T13:42:42.758Z,15.11
2023-03-04T13:45:28.234Z,14.75
2023-03-04T13:47:55.682Z,15.04
2023-03-04T13:50:23.945Z,15.57
2023-03-04T13:52:51.177Z,15.27
2023-03-04T13:55:35.751Z,15.18
2023-03-04T13:58:10.313Z,14.70
2023-03-04T14:00:37.721Z,14.33
2023-03-04T14:03:14.787Z,14.74
2023-03-04T14:05:41.965Z,14.32
2023-03-04T14:08:19.300Z,14.04
2023-03-04T14:10:54.456Z,14.36
2023-03-04T14:13:22.288Z,14.56
2023-03-04T14:15:56.767Z,14.30
2023-03-04T14:18:28.157Z,15.14
2023-03-04T14:20:58.985Z,14.98
2023-03-04T14:23:30.481Z,15.06
2023-03-04T14:26:23.844Z,15.12
2023-03-04T14:28:52.251Z,14.99
2023-03-04T14:31:23.126Z,15.26
2023-03-04T14:33:51.556Z,14.81
2023-03-04T14:36:20.227Z,14.94
2023-03-04T14:38:52.418Z,15.04
2023-03-04T14:41:21.629Z,14.27
2023-03-04T14:43:54.617Z,13.96
2023-03-04T14:46:22.060Z,13.98
2023-03-04T14:48:50.110Z,14.42
2023-03-04T14:51:28.558Z,14.05
2023-03-04T14:53:56.496Z,14.04
2023-03-04T14:56:27.913Z,13.41
2023-03-04T14:58:57.126Z,13.55
2023-03-04T15:01:36.817Z,13.26
2023-03-04T15:04:08.478Z,13.81
2023-03-04T15:06:37.275Z,13.86
2023-03-04T15:09:05.469Z,13.71
2023-03-04T15:11:46.082Z,13.58
2023-03-04T15:14:32.135Z,13.26
2023-03-04T15:16:59.300Z,13.05
2023-03-04T15:19:29.055Z,12.75
2023-03-04T15:22:03.054Z,12.99
2023-03-04T15:24:30.493Z,12.39
2023-03-04T15:26:57.596Z,12.48
2023-03-04T15:29:24.749Z,12.37
2023-03-04T15:31:52.236Z,12.30
2023-03-04T15:34:20.139Z,11.68
2023-03-04T15:36:47.917Z,11.83
2023-03-04T15:39:16.322Z,11.77
2023-03-04T15:41:43.495Z,11.82
2023-03-04T15:44:12.328Z,11.76
2023-03-04T15:46:39.791Z,11.73
2023-03-04T15:49:06.959Z,11.12
2023-03-04T15:51:34.129Z,10.95
2023-03-04T15:54:01.617Z,11.55
2023-03-04T15:56:31.856Z,10.96
2023-03-04T15:58:59.769Z,11.15
2023-03-04T16:01:27.321Z,11.56
2023-03-04T16:03:54.919Z,11.12
2023-03-04T16:06:23.463Z,11.27
2023-03-04T16:08:50.799Z,11.19
2023-03-04T16:11:25.794Z,11.21
2023-03-04T16:13:53.094Z,11.28
2023-03-04T16:16:20.711Z,10.75
2023-03-04T16:18:48.138Z,10.81
2023-03-04T16:21:16.932Z,10.33
2023-03-04T16:23:45.434Z,10.21
2023-03-04T16:26:17.318Z,9.75
2023-03-04T16:28:45.075Z,9.84
2023-03-04T16:31:13.240Z,9.75
2023-03-04T16:33:40.552Z,9.79
2023-03-04T16:36:21.538Z,9.61
2023-03-04T16:38:48.997Z,9.67
2023-03-04T16:41:17.160Z,9.81
2023-03-04T16:43:44.420Z,9.56
2023-03-04T16:46:12.396Z,9.36
2023-03-04T16:48:40.458Z,9.29
2023-03-04T16:51:13.025Z,9.53
2023-03-04T16:53:41.194Z,9.31
2023-03-04T16:56:19.181Z,9.61
2023-03-04T16:58:47.303Z,9.50
2023-03-04T17:01:18.324Z,9.21
2023-03-04T17:03:46.109Z,9.45
2023-03-04T17:06:14.092Z,9.21
2023-03-04T17:08:41.726Z,9.50
2023-03-04T17:11:11.598Z,9.32
2023-03-04T17:13:39.466Z,8.85
2023-03-04T17:16:07.019Z,9.22
2023-03-04T17:18:34.484Z,9.34
2023-03-04T17:21:03.367Z,9.05
2023-03-04T17:23:30.929Z,9.22
2023-03-04T17:25:59.006Z,9.18
2023-03-04T17:28:27.068Z,9.23
2023-03-04T17:30:54.707Z,9.65
2023-03-04T17:33:22.719Z,9.38
2023-03-04T17:35:50.743Z,9.05
2023-03-04T17:38:18.555Z,9.82
2023-03-04T17:40:46.335Z,9.11
2023-03-04T17:43:14.188Z,9.82
2023-03-04T17:45:42.134Z,8.96
2023-03-04T17:48:15.345Z,9.55
2023-03-04T17:50:52.620Z,8.97
2023-03-04T17:53:20.343Z,9.67
2023-03-04T17:55:49.125Z,9.45
2023-03-04T17:58:16.716Z,9.72
2023-03-04T18:00:44.470Z,9.39
2023-03-04T18:03:13.026Z,9.74
2023-03-04T18:05:40.788Z,9.41
2023-03-04T18:08:08.490Z,9.50
2023-03-04T18:10:37.704Z,9.53
2023-03-04T18:13:05.541Z,10.06
2023-03-04T18:15:33.187Z,9.36
2023-03-04T18:18:01.269Z,8.99
2023-03-04T18:20:28.896Z,8.81
2023-03-04T18:22:58.639Z,8.92
2023-03-04T18:25:26.820Z,8.07
2023-03-04T18:27:54.389Z,8.40
2023-03-04T18:30:27.212Z,8.44
2023-03-04T18:32:56.417Z,8.71
2023-03-04T18:35:24.080Z,8.60
2023-03-04T18:37:51.862Z,8.65
2023-03-04T18:40:21.326Z,8.36
2023-03-04T18:42:49.008Z,8.36
2023-03-04T18:45:17.338Z,8.74
2023-03-04T18:47:46.066Z,8.27
2023-03-04T18:50:13.730Z,8.30
2023-03-04T18:52:41.655Z,8.37
2023-03-04T18:55:11.207Z,7.91
2023-03-04T18:57:43.133Z,8.55
2023-03-04T19:00:11.644Z,8.03
2023-03-04T19:02:39.484Z,8.05
2023-03-04T19:05:11.406Z,7.75
2023-03-04T19:07:39.365Z,7.28
2023-03-04T19:10:07.305Z,7.55
2023-03-04T19:12:34.970Z,8.10
2023-03-04T19:15:05.792Z,7.40
2023-03-04T19:17:33.621Z,7.77
2023-03-04T19:20:01.423Z,7.95
2023-03-04T19:22:29.460Z,7.91
2023-03-04T19:24:57.403Z,7.60
2023-03-04T19:27:25.101Z,6.81
2023-03-04T19:29:53.299Z,7.23
2023-03-04T19:32:21.229Z,7.14
2023-03-04T19:34:49.088Z,7.17
2023-03-04T19:37:17.185Z,6.34
2023-03-04T19:39:46.045Z,6.91
2023-03-04T19:42:13.789Z,6.98
2023-03-04T19:44:44.503Z,6.64
2023-03-04T19:47:12.690Z,6.94
2023-03-04T19:49:41.639Z,7.26
2023-03-04T19:52:09.547Z,7.17
2023-03-04T19:54:37.325Z,8.15
2023-03-04T19:57:04.926Z,7.50
2023-03-04T19:59:33.070Z,7.78
2023-03-04T20:02:01.514Z,8.25
2023-03-04T20:04:29.640Z,8.71
2023-03-04T20:06:57.144Z,8.55
2023-03-04T20:09:24.573Z,9.00
2023-03-04T20:11:58.117Z,8.44
2023-03-04T20:14:28.794Z,8.04
2023-03-04T20:17:03.061Z,8.56
2023-03-04T20:19:30.673Z,8.48
2023-03-04T20:21:58.342Z,8.81
2023-03-04T20:24:25.934Z,7.08
2023-03-04T20:26:53.089Z,7.74
2023-03-04T20:29:20.741Z,8.91
2023-03-04T20:31:48.558Z,9.04
2023-03-04T20:34:15.775Z,9.33
2023-03-04T20:36:43.592Z,9.44
2023-03-04T20:39:26.882Z,9.55
2023-03-04T20:41:55.843Z,8.95
2023-03-04T20:44:23.281Z,9.25
2023-03-04T20:46:50.673Z,9.51
2023-03-04T20:49:27.742Z,9.72
2023-03-04T20:52:02.995Z,9.72
2023-03-04T20:54:30.917Z,7.35
2023-03-04T20:56:58.220Z,8.72
2023-03-04T20:59:25.516Z,9.44
2023-03-04T21:01:53.429Z,9.59
2023-03-04T21:04:20.903Z,9.35
2023-03-04T21:06:48.433Z,9.27
2023-03-04T21:09:16.814Z,9.10
2023-03-04T21:11:44.077Z,9.45
2023-03-04T21:14:12.667Z,9.49
2023-03-04T21:16:40.776Z,9.85
2023-03-04T21:19:10.720Z,9.83
2023-03-04T21:21:37.929Z,8.83
2023-03-04T21:24:05.505Z,8.54
2023-03-04T21:26:32.690Z,9.29
2023-03-04T21:28:59.871Z,9.41
2023-03-04T21:31:29.070Z,9.14
2023-03-04T21:33:56.448Z,7.72
2023-03-04T21:36:23.770Z,7.36
2023-03-04T21:38:51.294Z,7.97
2023-03-04T21:41:20.194Z,8.53
2023-03-04T21:43:48.600Z,7.71
2023-03-04T21:46:16.592Z,8.80
2023-03-04T21:48:44.855Z,8.41
2023-03-04T21:51:12.520Z,8.01
2023-03-04T21:53:40.098Z,8.62
2023-03-04T21:56:07.227Z,7.84
2023-03-04T21:58:35.335Z,8.38
2023-03-04T22:01:08.984Z,8.05
2023-03-04T22:03:36.509Z,8.07
2023-03-04T22:06:04.863Z,8.50
2023-03-04T22:08:32.172Z,8.52
2023-03-04T22:11:02.217Z,8.30
2023-03-04T22:13:29.334Z,8.54
2023-03-04T22:15:56.956Z,8.04
2023-03-04T22:18:24.728Z,8.17
2023-03-04T22:20:59.487Z,7.18
2023-03-04T22:23:26.965Z,8.04
2023-03-04T22:25:54.256Z,8.42
2023-03-04T22:28:21.767Z,8.26
2023-03-04T22:30:49.177Z,8.12
2023-03-04T22:33:16.300Z,8.27
2023-03-04T22:35:44.381Z,8.65
2023-03-04T22:38:11.876Z,8.36
2023-03-04T22:40:39.048Z,8.08
2023-03-04T22:43:06.173Z,8.22
2023-03-04T22:45:33.626Z,8.17
2023-03-04T22:48:00.875Z,8.45
2023-03-04T22:50:28.115Z,7.77
2023-03-04T22:52:55.516Z,8.26
2023-03-04T22:55:22.782Z,8.05
2023-03-04T22:57:49.968Z,7.45
2023-03-04T23:00:19.329Z,7.52
2023-03-04T23:02:46.454Z,8.45
2023-03-04T23:05:13.909Z,8.69
2023-03-04T23:07:41.382Z,8.26
2023-03-04T23:10:13.333Z,8.13
2023-03-04T23:12:40.733Z,8.44
2023-03-04T23:15:08.226Z,7.91
2023-03-04T23:17:35.413Z,7.75
2023-03-04T23:20:03.391Z,8.73
2023-03-04T23:22:30.712Z,8.36
2023-03-04T23:24:57.898Z,8.56
2023-03-04T23:27:25.446Z,8.43
2023-03-04T23:29:52.615Z,8.57
2023-03-04T23:32:19.792Z,8.00
2023-03-04T23:34:53.010Z,8.22
2023-03-04T23:37:20.967Z,8.16
2023-03-04T23:39:48.692Z,7.61
2023-03-04T23:42:15.919Z,7.43
2023-03-04T23:44:43.067Z,6.74
2023-03-04T23:47:10.508Z,7.35
2023-03-04T23:49:37.682Z,6.54
2023-03-04T23:52:04.987Z,7.31
2023-03-04T23:54:32.438Z,7.24
2023-03-04T23:57:00.475Z,7.03
2023-03-04T23:59:28.359Z,7.77
